Time;durP1;ratioP1;P1;durP2;ratioP2;P2;SDS_P1;SDS_P2;PMS_P1;PMS_P2;Temp;Humidity;BMP_temperature;BMP_pressure;BME280_temperature;BME280_humidity;BME280_pressure;Samples;Min_cycle;Max_cycle;Signal;HPM_P1;HPM_P2
2023/09/29 00:00:18;;;;;;;15.30;12.20;;;18.10;99.90;;;;;;5073916;28;20475;-74
2023/09/29 00:02:49;;;;;;;14.70;11.73;;;18.10;99.90;;;;;;5073745;28;20969;-74
2023/09/29 00:05:18;;;;;;;13.97;12.57;;;18.00;99.90;;;;;;5073731;28;20432;-74
2023/09/29 00:07:47;;;;;;;13.40;12.23;;;18.00;99.90;;;;;;5073953;28;20407;-73
2023/09/29 00:10:16;;;;;;;14.40;12.20;;;18.00;99.90;;;;;;5073136;28;20532;-74
2023/09/29 00:12:46;;;;;;;19.73;13.03;;;18.00;99.90;;;;;;5073525;28;20498;-74
2023/09/29 00:15:18;;;;;;;14.67;13.33;;;18.00;99.90;;;;;;5073542;28;20439;-74
2023/09/29 00:17:46;;;;;;;13.23;12.07;;;18.00;99.90;;;;;;5073585;28;20949;-74
2023/09/29 00:20:23;;;;;;;16.00;13.77;;;18.00;99.90;;;;;;5073513;28;20973;-74
2023/09/29 00:22:53;;;;;;;13.70;12.33;;;18.00;99.90;;;;;;5074383;28;20411;-74
2023/09/29 00:25:21;;;;;;;16.23;14.53;;;18.00;99.90;;;;;;5073598;28;20485;-74
2023/09/29 00:27:50;;;;;;;17.20;15.53;;;18.00;99.90;;;;;;5073435;28;20442;-74
2023/09/29 00:30:20;;;;;;;16.23;14.73;;;18.00;99.90;;;;;;5073738;28;20441;-74
2023/09/29 00:32:49;;;;;;;15.03;13.53;;;17.90;99.90;;;;;;5072425;28;20491;-74
2023/09/29 00:35:24;;;;;;;16.33;14.57;;;18.00;99.90;;;;;;5072179;28;20477;-74
2023/09/29 00:37:53;;;;;;;17.10;14.50;;;17.90;99.90;;;;;;5073629;28;20399;-74
2023/09/29 00:40:22;;;;;;;20.83;14.00;;;17.90;99.90;;;;;;5073018;28;20791;-74
2023/09/29 00:42:50;;;;;;;17.60;15.90;;;17.90;99.90;;;;;;5072050;28;20488;-74
2023/09/29 00:45:23;;;;;;;15.40;13.97;;;17.90;99.90;;;;;;5071969;28;20443;-74
2023/09/29 00:47:55;;;;;;;18.57;15.90;;;17.90;99.90;;;;;;5073197;28;20869;-74
2023/09/29 00:50:28;;;;;;;15.73;14.20;;;17.90;99.90;;;;;;5073183;28;20806;-74
2023/09/29 00:52:59;;;;;;;15.83;14.33;;;17.90;99.90;;;;;;5073240;28;20872;-74
2023/09/29 00:55:29;;;;;;;17.10;15.50;;;17.90;99.90;;;;;;5071848;28;20432;-74
2023/09/29 00:57:59;;;;;;;18.90;17.10;;;17.90;99.90;;;;;;5071896;28;20520;-74
2023/09/29 01:00:31;;;;;;;18.23;16.37;;;17.90;99.90;;;;;;5073282;28;20933;-74
2023/09/29 01:03:04;;;;;;;18.97;17.00;;;17.90;99.90;;;;;;5073708;28;20496;-74
2023/09/29 01:05:36;;;;;;;18.93;17.10;;;17.90;99.90;;;;;;5073353;28;20432;-74
2023/09/29 01:08:09;;;;;;;18.40;16.80;;;17.90;99.90;;;;;;5071751;28;20973;-74
2023/09/29 01:10:37;;;;;;;18.80;17.10;;;17.90;99.90;;;;;;5071954;28;20412;-74
2023/09/29 01:13:06;;;;;;;19.90;17.90;;;17.90;99.90;;;;;;5071897;28;20480;-74
2023/09/29 01:15:36;;;;;;;18.43;16.60;;;17.90;99.90;;;;;;5071513;28;20440;-74
2023/09/29 01:18:06;;;;;;;21.33;19.33;;;17.90;99.90;;;;;;5073220;28;20425;-74
2023/09/29 01:20:37;;;;;;;19.93;18.07;;;17.80;99.90;;;;;;5072993;28;20444;-74
2023/09/29 01:23:06;;;;;;;21.07;19.20;;;17.80;99.90;;;;;;5077267;28;20422;-74
2023/09/29 01:25:35;;;;;;;19.13;17.23;;;17.80;99.90;;;;;;5076127;28;20584;-74
2023/09/29 01:28:08;;;;;;;23.23;20.77;;;17.80;99.90;;;;;;5076694;28;20437;-74
2023/09/29 01:30:36;;;;;;;21.30;19.43;;;17.80;99.90;;;;;;5075382;28;20842;-74
2023/09/29 01:33:05;;;;;;;21.00;19.10;;;17.80;99.90;;;;;;5075244;28;20548;-74
2023/09/29 01:35:34;;;;;;;21.03;19.10;;;17.80;99.90;;;;;;5075137;28;20556;-74
2023/09/29 01:38:02;;;;;;;20.33;18.33;;;17.80;99.90;;;;;;5075087;28;20428;-74
2023/09/29 01:40:30;;;;;;;21.60;19.70;;;17.70;99.90;;;;;;5075001;28;20440;-74
2023/09/29 01:42:59;;;;;;;21.27;19.20;;;17.70;99.90;;;;;;5076623;28;20506;-74
2023/09/29 01:45:28;;;;;;;21.57;19.67;;;17.70;99.90;;;;;;5076142;28;20464;-74
2023/09/29 01:47:56;;;;;;;21.00;19.17;;;17.70;99.90;;;;;;5075016;28;20427;-74
2023/09/29 01:50:26;;;;;;;21.90;19.87;;;17.70;99.90;;;;;;5074837;28;20502;-74
2023/09/29 01:52:54;;;;;;;22.53;20.40;;;17.70;99.90;;;;;;5076123;28;20790;-74
2023/09/29 01:55:24;;;;;;;22.30;20.20;;;17.70;99.90;;;;;;5076212;28;21049;-74
2023/09/29 01:57:54;;;;;;;22.03;19.80;;;17.70;99.90;;;;;;5074718;28;20441;-74
2023/09/29 02:00:25;;;;;;;23.50;21.40;;;17.70;99.90;;;;;;5075976;28;20869;-74
2023/09/29 02:02:55;;;;;;;22.60;20.37;;;17.70;99.90;;;;;;5074714;28;20849;-74
2023/09/29 02:05:25;;;;;;;22.80;20.80;;;17.60;99.90;;;;;;5074585;28;20497;-74
2023/09/29 02:07:53;;;;;;;24.10;21.60;;;17.60;99.90;;;;;;5074891;28;20781;-74
2023/09/29 02:10:24;;;;;;;24.00;21.90;;;17.60;99.90;;;;;;5074471;28;20431;-74
2023/09/29 02:12:55;;;;;;;24.93;22.60;;;17.60;99.90;;;;;;5075916;28;20403;-74
2023/09/29 02:15:27;;;;;;;25.37;23.07;;;17.60;99.90;;;;;;5074373;28;21038;-74
2023/09/29 02:17:57;;;;;;;25.00;22.80;;;17.60;99.90;;;;;;5074419;28;20491;-74
2023/09/29 02:20:29;;;;;;;24.73;22.47;;;17.60;99.90;;;;;;5074539;28;20408;-74
2023/09/29 02:22:59;;;;;;;24.67;22.67;;;17.60;99.90;;;;;;5074339;28;20434;-74
2023/09/29 02:25:29;;;;;;;26.00;23.40;;;17.60;99.90;;;;;;5074767;28;20496;-74
2023/09/29 02:27:59;;;;;;;25.67;23.37;;;17.60;99.90;;;;;;5074195;28;20420;-74
2023/09/29 02:30:29;;;;;;;26.83;24.43;;;17.60;99.90;;;;;;5074162;28;20426;-74
2023/09/29 02:32:58;;;;;;;26.23;23.83;;;17.60;99.90;;;;;;5075069;28;20407;-74
2023/09/29 02:35:26;;;;;;;27.73;25.13;;;17.60;99.90;;;;;;5074281;28;21066;-74
2023/09/29 02:37:55;;;;;;;28.17;25.40;;;17.60;99.90;;;;;;5075266;28;20766;-74
2023/09/29 02:40:24;;;;;;;28.63;26.03;;;17.60;99.90;;;;;;5073966;28;20419;-74
2023/09/29 02:42:53;;;;;;;27.63;25.13;;;17.60;99.90;;;;;;5075108;28;20443;-74
2023/09/29 02:45:24;;;;;;;29.23;26.37;;;17.60;99.90;;;;;;5075266;28;20420;-74
2023/09/29 02:47:54;;;;;;;29.57;25.90;;;17.60;99.90;;;;;;5075635;28;20417;-74
2023/09/29 02:50:24;;;;;;;29.13;26.23;;;17.60;99.90;;;;;;5073763;28;20438;-74
2023/09/29 02:52:53;;;;;;;28.07;25.43;;;17.50;99.90;;;;;;5075473;28;20922;-74
2023/09/29 02:55:22;;;;;;;29.17;26.47;;;17.60;99.90;;;;;;5075819;28;20451;-74
2023/09/29 02:57:51;;;;;;;31.17;28.07;;;17.60;99.90;;;;;;5079593;28;20424;-75
2023/09/29 03:00:21;;;;;;;28.93;26.03;;;17.60;99.90;;;;;;5075485;28;20913;-74
2023/09/29 03:02:52;;;;;;;28.83;26.33;;;17.60;99.90;;;;;;5079050;28;20463;-74
2023/09/29 03:05:23;;;;;;;30.87;27.97;;;17.60;99.90;;;;;;5076829;28;20534;-74
2023/09/29 03:07:52;;;;;;;30.17;27.33;;;17.60;99.90;;;;;;5076627;28;20418;-74
2023/09/29 03:10:25;;;;;;;27.37;24.97;;;17.60;99.90;;;;;;5075197;28;20983;-74
2023/09/29 03:12:56;;;;;;;29.60;26.63;;;17.60;99.90;;;;;;5074432;28;20404;-74
2023/09/29 03:15:26;;;;;;;31.43;28.70;;;17.60;99.90;;;;;;5075317;28;20464;-74
2023/09/29 03:17:55;;;;;;;31.90;29.00;;;17.60;99.90;;;;;;5074706;28;20877;-74
2023/09/29 03:20:28;;;;;;;31.03;28.23;;;17.60;99.90;;;;;;5074835;28;20413;-74
2023/09/29 03:23:00;;;;;;;28.87;26.17;;;17.60;99.90;;;;;;5074302;28;20446;-74
2023/09/29 03:25:29;;;;;;;29.77;27.00;;;17.60;99.90;;;;;;5074622;28;20474;-74
2023/09/29 03:27:59;;;;;;;29.43;26.43;;;17.60;99.90;;;;;;5074563;28;20420;-74
2023/09/29 03:30:27;;;;;;;32.07;28.77;;;17.60;99.90;;;;;;5073035;28;20462;-74
2023/09/29 03:32:55;;;;;;;31.20;28.20;;;17.60;99.90;;;;;;5074840;28;20423;-74
2023/09/29 03:35:24;;;;;;;29.17;26.63;;;17.60;99.90;;;;;;5074039;28;20531;-74
2023/09/29 03:37:53;;;;;;;30.40;27.47;;;17.60;99.90;;;;;;5074186;28;20434;-74
2023/09/29 03:40:21;;;;;;;30.23;27.50;;;17.60;99.90;;;;;;5072906;28;20792;-74
2023/09/29 03:42:49;;;;;;;31.47;28.13;;;17.60;99.90;;;;;;5072531;28;20548;-74
2023/09/29 03:45:17;;;;;;;31.27;28.50;;;17.60;99.90;;;;;;5073720;28;20813;-74
2023/09/29 03:47:46;;;;;;;30.80;27.80;;;17.60;99.90;;;;;;5074594;28;20465;-74
2023/09/29 03:50:15;;;;;;;31.80;28.37;;;17.60;99.90;;;;;;5073900;28;20841;-74
2023/09/29 03:52:45;;;;;;;31.93;29.03;;;17.60;99.90;;;;;;5074208;28;20437;-74
2023/09/29 03:55:16;;;;;;;33.73;30.73;;;17.60;99.90;;;;;;5074537;28;20863;-74
2023/09/29 03:57:45;;;;;;;30.60;27.73;;;17.60;99.90;;;;;;5078359;28;20400;-74
2023/09/29 04:00:15;;;;;;;32.20;29.00;;;17.60;99.90;;;;;;5077198;28;20443;-73
2023/09/29 04:02:44;;;;;;;31.90;28.90;;;17.60;99.90;;;;;;5074213;28;20432;-74
2023/09/29 04:05:12;;;;;;;37.40;33.77;;;17.60;99.90;;;;;;5073842;28;20442;-74
2023/09/29 04:07:42;;;;;;;36.80;33.47;;;17.60;99.90;;;;;;5073540;28;20443;-74
2023/09/29 04:10:11;;;;;;;32.57;29.57;;;17.60;99.90;;;;;;5072324;28;20447;-74
2023/09/29 04:12:41;;;;;;;32.03;28.73;;;17.60;99.90;;;;;;5073473;28;20408;-74
2023/09/29 04:15:10;;;;;;;31.87;28.90;;;17.60;99.90;;;;;;5073579;28;20474;-74
2023/09/29 04:17:39;;;;;;;30.57;27.70;;;17.60;99.90;;;;;;5073465;28;20522;-74
2023/09/29 04:20:08;;;;;;;29.13;26.50;;;17.60;99.90;;;;;;5073433;28;20458;-74
2023/09/29 04:22:37;;;;;;;30.37;27.37;;;17.60;99.90;;;;;;5073555;28;20936;-74
2023/09/29 04:25:09;;;;;;;30.10;27.30;;;17.60;99.90;;;;;;5073482;28;20893;-74
2023/09/29 04:27:38;;;;;;;30.93;28.10;;;17.60;99.90;;;;;;5073360;28;20503;-74
2023/09/29 04:30:09;;;;;;;28.77;26.10;;;17.60;99.90;;;;;;5073975;28;20408;-74
2023/09/29 04:32:38;;;;;;;30.80;27.70;;;17.60;99.90;;;;;;5073475;28;20454;-74
2023/09/29 04:35:07;;;;;;;30.53;27.63;;;17.60;99.90;;;;;;5073189;28;20442;-74
2023/09/29 04:37:35;;;;;;;29.03;26.27;;;17.60;99.90;;;;;;5073569;28;20519;-74
2023/09/29 04:40:04;;;;;;;31.57;28.67;;;17.60;99.90;;;;;;5073672;28;20444;-74
2023/09/29 04:42:33;;;;;;;30.67;27.80;;;17.60;99.90;;;;;;5074566;28;20439;-74
2023/09/29 04:45:02;;;;;;;30.80;27.90;;;17.60;99.90;;;;;;5073838;28;20428;-74
2023/09/29 04:47:31;;;;;;;30.33;27.43;;;17.60;99.90;;;;;;5074276;28;20406;-74
2023/09/29 04:50:00;;;;;;;30.27;27.20;;;17.60;99.90;;;;;;5073920;28;20779;-74
2023/09/29 04:52:28;;;;;;;30.57;27.67;;;17.60;99.90;;;;;;5073659;28;20754;-74
2023/09/29 04:54:56;;;;;;;29.93;27.13;;;17.60;99.90;;;;;;5074158;28;20514;-74
2023/09/29 04:57:24;;;;;;;28.97;26.07;;;17.60;99.90;;;;;;5077281;28;20781;-74
2023/09/29 04:59:52;;;;;;;28.90;26.17;;;17.60;99.90;;;;;;5077323;28;20403;-74
2023/09/29 05:02:20;;;;;;;26.90;24.40;;;17.60;99.90;;;;;;5077169;28;20504;-74
2023/09/29 05:04:50;;;;;;;30.10;27.23;;;17.60;99.90;;;;;;5077052;28;20473;-74
2023/09/29 05:07:18;;;;;;;31.67;28.87;;;17.60;99.90;;;;;;5077368;28;20422;-74
2023/09/29 05:09:46;;;;;;;30.07;27.30;;;17.60;99.90;;;;;;5077097;28;20450;-74
2023/09/29 05:12:15;;;;;;;28.50;25.90;;;17.60;99.90;;;;;;5077341;28;20437;-74
2023/09/29 05:14:43;;;;;;;28.57;25.77;;;17.60;99.90;;;;;;5077758;28;20459;-74
2023/09/29 05:17:12;;;;;;;30.03;27.23;;;17.60;99.90;;;;;;5076735;28;20506;-74
2023/09/29 05:19:40;;;;;;;29.87;26.97;;;17.60;99.90;;;;;;5076785;28;20421;-74
2023/09/29 05:22:10;;;;;;;29.03;26.37;;;17.60;99.90;;;;;;5076446;28;20523;-74
2023/09/29 05:24:38;;;;;;;30.77;27.70;;;17.60;99.90;;;;;;5076527;28;20506;-74
2023/09/29 05:27:06;;;;;;;29.00;26.17;;;17.60;99.90;;;;;;5076563;28;20929;-74
2023/09/29 05:29:37;;;;;;;27.27;24.43;;;17.60;99.90;;;;;;5076546;28;20408;-74
2023/09/29 05:32:05;;;;;;;26.50;23.80;;;17.60;99.90;;;;;;5076441;28;20974;-74
2023/09/29 05:34:33;;;;;;;28.40;25.70;;;17.60;99.90;;;;;;5077065;28;21003;-74
2023/09/29 05:37:01;;;;;;;27.47;24.97;;;17.60;99.90;;;;;;5076245;28;20840;-74
2023/09/29 05:39:31;;;;;;;28.37;25.77;;;17.70;99.90;;;;;;5076316;28;20439;-74
2023/09/29 05:41:59;;;;;;;28.87;25.97;;;17.60;99.90;;;;;;5076301;28;20506;-74
2023/09/29 05:44:28;;;;;;;28.77;25.80;;;17.60;99.90;;;;;;5076544;28;20512;-74
2023/09/29 05:46:56;;;;;;;28.30;25.37;;;17.70;99.90;;;;;;5076509;28;20468;-74
2023/09/29 05:49:24;;;;;;;27.10;24.40;;;17.70;99.90;;;;;;5076711;28;20473;-74
2023/09/29 05:51:52;;;;;;;26.37;23.83;;;17.70;99.90;;;;;;5076457;28;20776;-74
2023/09/29 05:54:20;;;;;;;27.03;24.53;;;17.70;99.90;;;;;;5076797;28;20518;-74
2023/09/29 05:56:50;;;;;;;24.33;22.07;;;17.70;99.90;;;;;;5076685;28;20805;-74
2023/09/29 05:59:18;;;;;;;26.90;24.13;;;17.70;99.90;;;;;;5076319;28;20511;-74
2023/09/29 06:01:47;;;;;;;24.90;22.60;;;17.70;99.90;;;;;;5074773;28;20437;-74
2023/09/29 06:04:15;;;;;;;23.43;21.33;;;17.70;99.90;;;;;;5076433;28;20483;-74
2023/09/29 06:06:43;;;;;;;24.80;22.10;;;17.70;99.90;;;;;;5073779;28;20456;-74
2023/09/29 06:09:12;;;;;;;25.50;22.80;;;17.70;99.90;;;;;;5075966;28;20436;-71
2023/09/29 06:11:40;;;;;;;25.70;23.20;;;17.70;99.90;;;;;;5074580;28;20454;-72
2023/09/29 06:14:10;;;;;;;23.37;21.10;;;17.70;99.90;;;;;;5076191;28;20434;-74
2023/09/29 06:16:38;;;;;;;22.63;20.23;;;17.70;99.90;;;;;;5075789;28;20408;-74
2023/09/29 06:19:06;;;;;;;23.53;21.33;;;17.70;99.90;;;;;;5075722;28;20893;-72
2023/09/29 06:21:35;;;;;;;23.10;20.80;;;17.70;99.90;;;;;;5075452;28;20449;-72
2023/09/29 06:24:03;;;;;;;22.93;20.87;;;17.70;99.90;;;;;;5075712;28;20543;-73
2023/09/29 06:26:32;;;;;;;22.13;19.83;;;17.70;99.90;;;;;;5075851;28;20465;-72
2023/09/29 06:29:00;;;;;;;21.60;19.27;;;17.80;99.90;;;;;;5075460;28;20931;-72
2023/09/29 06:31:30;;;;;;;21.87;19.57;;;17.80;99.90;;;;;;5075321;28;20415;-72
2023/09/29 06:33:58;;;;;;;20.83;18.83;;;17.80;99.90;;;;;;5075390;28;20545;-73
2023/09/29 06:36:26;;;;;;;21.87;19.87;;;17.80;99.90;;;;;;5075492;28;20429;-72
2023/09/29 06:38:55;;;;;;;20.57;18.37;;;17.90;99.90;;;;;;5075445;28;20991;-73
2023/09/29 06:41:23;;;;;;;23.53;21.13;;;17.90;99.90;;;;;;5075878;28;20433;-73
2023/09/29 06:43:53;;;;;;;24.13;21.73;;;17.90;99.90;;;;;;5073897;28;20469;-73
2023/09/29 06:46:21;;;;;;;19.50;17.63;;;18.00;99.90;;;;;;5075686;28;21011;-73
2023/09/29 06:48:50;;;;;;;20.80;18.60;;;17.90;99.90;;;;;;5075145;28;20893;-73
2023/09/29 06:51:19;;;;;;;19.93;17.90;;;18.00;99.90;;;;;;5075116;28;20457;-73
2023/09/29 06:53:47;;;;;;;19.57;17.57;;;18.00;99.90;;;;;;5075309;28;20461;-73
2023/09/29 06:56:17;;;;;;;21.33;19.23;;;18.10;99.90;;;;;;5075265;28;20869;-73
2023/09/29 06:58:46;;;;;;;19.80;17.80;;;18.10;99.90;;;;;;5075068;28;20440;-73
2023/09/29 07:01:15;;;;;;;19.30;17.50;;;18.10;99.90;;;;;;5075980;28;20809;-72
2023/09/29 07:03:45;;;;;;;20.03;18.20;;;18.10;99.90;;;;;;5075312;28;20478;-73
2023/09/29 07:06:15;;;;;;;18.10;16.40;;;18.10;99.90;;;;;;5075663;28;20417;-73
2023/09/29 07:08:45;;;;;;;18.43;16.40;;;18.20;99.90;;;;;;5075887;28;20456;-73
2023/09/29 07:11:13;;;;;;;19.43;17.37;;;18.10;99.90;;;;;;5074778;28;20862;-73
2023/09/29 07:13:41;;;;;;;17.70;15.93;;;18.20;99.90;;;;;;5074848;28;20901;-72
2023/09/29 07:16:10;;;;;;;17.70;15.37;;;18.20;99.90;;;;;;5075143;28;20430;-72
2023/09/29 07:18:38;;;;;;;23.57;17.10;;;18.20;99.90;;;;;;5073258;28;20445;-72
2023/09/29 07:21:06;;;;;;;24.50;17.40;;;18.30;99.90;;;;;;5073542;28;20813;-72
2023/09/29 07:23:36;;;;;;;15.70;14.20;;;18.30;99.90;;;;;;5073591;28;20451;-74
2023/09/29 07:26:04;;;;;;;17.23;14.50;;;18.30;99.90;;;;;;5074382;28;20445;-72
2023/09/29 07:28:33;;;;;;;15.13;13.73;;;18.30;99.90;;;;;;5074505;28;20437;-73
2023/09/29 07:31:01;;;;;;;14.07;12.80;;;18.30;99.90;;;;;;5074493;28;20837;-73
2023/09/29 07:33:29;;;;;;;15.30;13.80;;;18.40;99.90;;;;;;5074824;28;20442;-73
2023/09/29 07:35:57;;;;;;;20.33;17.73;;;18.40;99.90;;;;;;5074586;28;20489;-73
2023/09/29 07:38:25;;;;;;;29.80;15.40;;;18.50;99.90;;;;;;5074238;28;20437;-73
2023/09/29 07:40:55;;;;;;;16.30;13.70;;;18.50;99.90;;;;;;5074656;28;20855;-73
2023/09/29 07:43:23;;;;;;;14.87;13.03;;;18.50;99.90;;;;;;5073095;28;20549;-73
2023/09/29 07:45:51;;;;;;;13.63;12.43;;;18.60;99.90;;;;;;5074176;28;20480;-73
2023/09/29 07:48:19;;;;;;;18.90;12.40;;;18.60;99.90;;;;;;5074522;28;20520;-73
2023/09/29 07:50:47;;;;;;;21.80;12.50;;;18.60;99.90;;;;;;5073074;28;20456;-74
2023/09/29 07:53:15;;;;;;;25.70;13.17;;;18.70;99.90;;;;;;5074470;28;20459;-73
2023/09/29 07:55:44;;;;;;;23.00;12.50;;;18.70;99.90;;;;;;5073697;28;20476;-73
2023/09/29 07:58:14;;;;;;;12.40;11.20;;;18.80;99.90;;;;;;5074484;28;20428;-73
2023/09/29 08:00:42;;;;;;;11.43;10.20;;;18.80;99.90;;;;;;5074421;28;20445;-73
2023/09/29 08:03:11;;;;;;;12.03;10.83;;;18.80;99.90;;;;;;5074681;28;20437;-73
2023/09/29 08:05:39;;;;;;;11.27;10.07;;;18.90;99.90;;;;;;5074215;28;20448;-73
2023/09/29 08:08:07;;;;;;;19.23;11.97;;;18.90;99.90;;;;;;5074541;28;20799;-73
2023/09/29 08:10:35;;;;;;;11.93;10.73;;;18.90;99.90;;;;;;5073910;28;20536;-73
2023/09/29 08:13:03;;;;;;;11.53;10.47;;;19.00;99.90;;;;;;5074072;28;20473;-74
2023/09/29 08:15:33;;;;;;;15.53;9.60;;;19.00;99.90;;;;;;5073689;28;20485;-74
2023/09/29 08:18:01;;;;;;;10.43;9.37;;;19.10;99.90;;;;;;5073876;28;20483;-73
2023/09/29 08:20:29;;;;;;;12.87;9.00;;;19.10;99.90;;;;;;5073840;28;20487;-74
2023/09/29 08:22:57;;;;;;;13.10;8.67;;;19.10;99.90;;;;;;5074269;28;20940;-74
2023/09/29 08:25:26;;;;;;;9.33;8.30;;;19.10;99.90;;;;;;5072245;28;20469;-73
2023/09/29 08:27:54;;;;;;;9.70;8.60;;;19.10;99.90;;;;;;5073743;28;20429;-73
2023/09/29 08:30:22;;;;;;;8.50;7.60;;;19.20;99.90;;;;;;5073151;28;20452;-73
2023/09/29 08:32:51;;;;;;;14.63;7.10;;;19.20;99.90;;;;;;5073997;28;20433;-73
2023/09/29 08:35:33;;;;;;;12.37;9.17;;;19.30;99.90;;;;;;5074202;28;20540;-73
2023/09/29 08:38:01;;;;;;;8.40;6.87;;;19.20;99.90;;;;;;5073522;28;20532;-74
2023/09/29 08:40:36;;;;;;;9.73;8.83;;;19.20;99.90;;;;;;5072130;28;20445;-74
2023/09/29 08:43:10;;;;;;;8.33;7.63;;;19.30;99.90;;;;;;5072961;28;20443;-73
2023/09/29 08:45:43;;;;;;;7.80;7.10;;;19.30;99.90;;;;;;5072346;28;20492;-73
2023/09/29 08:48:14;;;;;;;7.80;6.97;;;19.30;99.90;;;;;;5073963;28;20879;-73
2023/09/29 08:50:43;;;;;;;8.30;7.43;;;19.30;99.90;;;;;;5073358;28;20433;-74
2023/09/29 08:53:12;;;;;;;7.60;6.80;;;19.40;99.90;;;;;;5073439;28;20934;-74
2023/09/29 08:55:41;;;;;;;7.73;7.03;;;19.40;99.90;;;;;;5073589;28;20547;-74
2023/09/29 08:58:10;;;;;;;7.93;7.03;;;19.40;99.90;;;;;;5073893;28;20873;-75
2023/09/29 09:00:38;;;;;;;11.17;7.70;;;19.40;99.90;;;;;;5075259;28;20472;-73
2023/09/29 09:03:11;;;;;;;11.43;9.17;;;19.40;99.90;;;;;;5078119;28;20856;-73
2023/09/29 09:05:40;;;;;;;11.50;9.80;;;19.40;99.90;;;;;;5074062;28;20469;-74
2023/09/29 09:08:08;;;;;;;7.50;6.40;;;19.50;99.90;;;;;;5077400;28;20441;-73
2023/09/29 09:10:37;;;;;;;7.53;6.67;;;19.50;99.90;;;;;;5074104;28;20938;-74
2023/09/29 09:13:06;;;;;;;7.37;6.63;;;19.50;99.90;;;;;;5074123;28;20449;-74
2023/09/29 09:15:35;;;;;;;7.33;5.60;;;19.60;99.90;;;;;;5075208;28;20453;-74
2023/09/29 09:18:04;;;;;;;7.90;7.27;;;19.60;99.90;;;;;;5075489;28;20848;-74
2023/09/29 09:20:34;;;;;;;6.50;5.90;;;19.70;99.90;;;;;;5074261;28;20498;-74
2023/09/29 09:23:04;;;;;;;10.10;7.00;;;19.70;99.90;;;;;;5074036;28;20474;-74
2023/09/29 09:25:38;;;;;;;6.97;6.10;;;19.70;99.90;;;;;;5074175;28;20818;-74
2023/09/29 09:28:07;;;;;;;7.93;6.37;;;19.80;99.90;;;;;;5074304;28;20413;-74
2023/09/29 09:30:37;;;;;;;9.63;6.47;;;19.80;99.90;;;;;;5074385;28;20441;-74
2023/09/29 09:33:06;;;;;;;6.20;5.60;;;19.90;99.90;;;;;;5074460;28;20421;-74
2023/09/29 09:35:38;;;;;;;7.67;6.10;;;20.00;99.90;;;;;;5074108;28;20445;-74
2023/09/29 09:38:07;;;;;;;7.30;6.60;;;20.10;99.90;;;;;;5073994;28;20898;-74
2023/09/29 09:40:36;;;;;;;6.70;5.13;;;20.20;99.90;;;;;;5073880;28;20506;-73
2023/09/29 09:43:08;;;;;;;6.20;5.60;;;20.40;99.90;;;;;;5076433;28;20841;-73
2023/09/29 09:45:39;;;;;;;9.33;6.30;;;20.50;99.90;;;;;;5077892;28;20473;-73
2023/09/29 09:48:09;;;;;;;5.97;5.17;;;20.60;99.90;;;;;;5076407;28;20444;-74
2023/09/29 09:50:44;;;;;;;5.40;4.90;;;20.70;99.90;;;;;;5077285;28;20836;-73
2023/09/29 09:53:13;;;;;;;5.70;5.00;;;20.70;99.90;;;;;;5077852;28;20843;-74
2023/09/29 09:55:50;;;;;;;5.43;4.90;;;20.80;99.90;;;;;;5076029;28;20465;-74
2023/09/29 09:58:23;;;;;;;6.60;4.87;;;20.80;99.90;;;;;;5077795;28;20421;-74
2023/09/29 10:00:54;;;;;;;5.83;4.97;;;20.80;99.90;;;;;;5075670;28;20445;-74
2023/09/29 10:03:26;;;;;;;5.43;4.53;;;20.90;99.90;;;;;;5077837;28;20421;-74
2023/09/29 10:05:58;;;;;;;5.53;4.40;;;20.90;99.90;;;;;;5076827;28;20475;-74
2023/09/29 10:08:29;;;;;;;5.13;4.63;;;20.90;99.90;;;;;;5076871;28;20418;-74
2023/09/29 10:11:14;;;;;;;4.23;3.83;;;21.00;99.90;;;;;;5077338;28;20451;-74
2023/09/29 10:13:44;;;;;;;5.00;4.50;;;21.00;99.90;;;;;;5076987;28;20457;-74
2023/09/29 10:16:23;;;;;;;4.87;4.37;;;21.10;99.90;;;;;;5082179;28;20423;-73
2023/09/29 10:18:56;;;;;;;6.83;5.13;;;21.20;99.90;;;;;;5081067;28;20478;-74
2023/09/29 10:21:28;;;;;;;4.33;4.03;;;21.20;99.90;;;;;;5081046;28;21007;-74
2023/09/29 10:24:00;;;;;;;7.53;4.10;;;21.30;99.90;;;;;;5080617;28;20968;-74
2023/09/29 10:26:29;;;;;;;6.43;4.10;;;21.40;99.90;;;;;;5081182;28;20461;-74
2023/09/29 10:29:02;;;;;;;4.30;3.80;;;21.50;99.90;;;;;;5077750;28;21028;-74
2023/09/29 10:31:30;;;;;;;7.10;4.23;;;21.60;99.90;;;;;;5077735;28;20890;-74
2023/09/29 10:34:00;;;;;;;5.73;3.90;;;21.70;99.90;;;;;;5077629;28;20536;-74
2023/09/29 10:36:31;;;;;;;4.23;3.50;;;21.70;99.90;;;;;;5077598;28;20887;-74
2023/09/29 10:39:04;;;;;;;4.63;3.60;;;21.80;99.90;;;;;;5079965;28;20417;-74
2023/09/29 10:41:34;;;;;;;5.17;3.60;;;21.80;99.90;;;;;;5080019;28;20489;-74
2023/09/29 10:44:05;;;;;;;4.00;3.50;;;21.90;99.90;;;;;;5079108;28;20461;-74
2023/09/29 10:46:34;;;;;;;9.10;3.73;;;22.00;99.90;;;;;;5078971;28;20535;-74
2023/09/29 10:49:02;;;;;;;4.80;3.00;;;22.10;99.90;;;;;;5077555;28;20438;-74
2023/09/29 10:51:32;;;;;;;5.53;3.50;;;22.10;99.90;;;;;;5078126;28;20480;-74
2023/09/29 10:54:06;;;;;;;5.13;2.90;;;22.20;99.90;;;;;;5076476;28;20795;-74
2023/09/29 10:56:36;;;;;;;5.37;2.70;;;22.20;99.90;;;;;;5076661;28;20409;-74
2023/09/29 10:59:07;;;;;;;3.30;3.00;;;22.30;99.90;;;;;;5077625;28;20955;-74
2023/09/29 11:01:35;;;;;;;5.17;3.43;;;22.30;99.90;;;;;;5077228;28;20437;-75
2023/09/29 11:04:07;;;;;;;5.47;3.30;;;22.40;99.90;;;;;;5076622;28;20528;-75
2023/09/29 11:06:45;;;;;;;3.40;3.10;;;22.40;99.90;;;;;;5076246;28;20556;-75
2023/09/29 11:09:20;;;;;;;3.90;2.67;;;22.50;99.90;;;;;;5076128;28;20426;-74
2023/09/29 11:11:49;;;;;;;5.10;3.37;;;22.50;99.90;;;;;;5079471;28;20435;-74
2023/09/29 11:14:17;;;;;;;3.70;3.20;;;22.50;99.90;;;;;;5077908;28;20532;-74
2023/09/29 11:16:56;;;;;;;3.90;2.80;;;22.60;99.90;;;;;;5078302;28;20530;-74
2023/09/29 11:19:26;;;;;;;4.93;2.93;;;22.60;99.90;;;;;;5077079;28;20432;-75
2023/09/29 11:21:58;;;;;;;3.20;2.40;;;22.70;99.90;;;;;;5076444;28;20491;-74
2023/09/29 11:24:28;;;;;;;4.20;2.97;;;22.70;99.90;;;;;;5076187;28;20460;-74
2023/09/29 11:27:00;;;;;;;5.77;3.23;;;22.80;99.90;;;;;;5076643;28;20476;-74
2023/09/29 11:29:29;;;;;;;5.83;2.83;;;22.80;99.90;;;;;;5075863;28;20432;-75
2023/09/29 11:31:57;;;;;;;3.40;2.90;;;22.90;99.90;;;;;;5075621;28;20503;-74
2023/09/29 11:34:29;;;;;;;5.20;3.70;;;22.80;99.90;;;;;;5075190;28;20449;-74
2023/09/29 11:36:58;;;;;;;4.10;3.70;;;22.90;99.90;;;;;;5075295;28;20426;-74
2023/09/29 11:39:28;;;;;;;4.53;2.70;;;22.90;99.90;;;;;;5075944;28;20535;-75
2023/09/29 11:41:57;;;;;;;3.30;3.00;;;23.00;99.90;;;;;;5075374;28;20473;-75
2023/09/29 11:44:26;;;;;;;5.57;3.40;;;23.00;99.90;;;;;;5075292;28;20456;-74
2023/09/29 11:46:54;;;;;;;4.90;3.47;;;23.10;99.90;;;;;;5075549;28;20819;-75
2023/09/29 11:49:22;;;;;;;3.90;3.50;;;23.10;99.90;;;;;;5075326;28;20437;-74
2023/09/29 11:51:52;;;;;;;4.00;2.80;;;23.10;99.90;;;;;;5074694;28;20437;-74
2023/09/29 11:54:23;;;;;;;3.30;2.93;;;23.20;99.90;;;;;;5075748;28;20460;-75
2023/09/29 11:56:51;;;;;;;3.33;2.77;;;23.20;99.90;;;;;;5074345;28;20434;-74
2023/09/29 11:59:20;;;;;;;6.20;4.03;;;23.30;99.90;;;;;;5075681;28;20440;-74
2023/09/29 12:01:48;;;;;;;4.33;2.70;;;23.30;99.90;;;;;;5075725;28;20465;-75
2023/09/29 12:04:16;;;;;;;3.73;3.30;;;23.30;99.90;;;;;;5075932;28;20510;-74
2023/09/29 12:06:45;;;;;;;5.00;3.20;;;23.40;99.90;;;;;;5075950;28;20473;-74
2023/09/29 12:09:13;;;;;;;3.00;2.70;;;23.40;99.90;;;;;;5078152;28;20532;-74
2023/09/29 12:11:42;;;;;;;4.47;3.33;;;23.40;99.90;;;;;;5078001;28;20441;-74
2023/09/29 12:14:10;;;;;;;3.80;3.37;;;23.50;99.90;;;;;;5079892;28;21001;-74
2023/09/29 12:16:38;;;;;;;4.20;3.00;;;23.50;99.90;;;;;;5081034;28;20433;-74
2023/09/29 12:19:07;;;;;;;5.07;3.30;;;23.50;99.90;;;;;;5078916;28;20447;-74
2023/09/29 12:21:35;;;;;;;7.33;3.23;;;23.50;99.90;;;;;;5075764;28;20461;-75
2023/09/29 12:24:04;;;;;;;4.00;3.10;;;23.50;99.90;;;;;;5075849;28;20555;-74
2023/09/29 12:26:33;;;;;;;5.30;3.50;;;23.50;99.90;;;;;;5075499;28;20610;-74
2023/09/29 12:29:05;;;;;;;5.37;2.90;;;23.50;99.90;;;;;;5076276;28;21045;-74
2023/09/29 12:31:33;;;;;;;6.97;3.63;;;23.50;99.90;;;;;;5076010;28;20425;-74
2023/09/29 12:34:01;;;;;;;3.30;3.00;;;23.50;99.90;;;;;;5073598;28;20433;-75
2023/09/29 12:36:30;;;;;;;4.57;3.33;;;23.50;99.90;;;;;;5073486;28;20511;-74
2023/09/29 12:38:58;;;;;;;4.07;3.17;;;23.50;99.90;;;;;;5073523;28;20479;-75
2023/09/29 12:41:27;;;;;;;13.10;3.73;;;23.50;99.90;;;;;;5073350;28;20441;-75
2023/09/29 12:43:55;;;;;;;3.97;3.57;;;23.50;99.90;;;;;;5073166;28;20977;-75